Terminal Aerodrome Forecast
Issued by NWS

Current Version | Previous Version | Graphics & Text | Print | Product List | Glossary On
Versions: 1 2 3 4 5 6 7 8 9 10 11 12 13 14 15 16 17
000
FTUS41 KILN 250246 AAA
TAFLCK
TAF AMD
KLCK 250246Z 2503/2524 19004KT P6SM SCT250
     FM251200 17004KT P6SM BKN060
     FM251800 21009KT P6SM BKN040=

USA.gov is the U.S. government's official web portal to all federal, state and local government web resources and services.